Terminal Aerodrome Forecast
Issued by NWS Cleveland, OH

Home | Current Version | Previous Version | Text Only | Print | Product List | Glossary Off
Versions: 1 2 3 4 5 6 7 8 9 10 11 12 13

000
FTUS41 KCLE 261739
TAFCAK
TAF
KCAK 261739Z 2618/2718 30008KT P6SM OVC020
      TEMPO 2618/2620 SCT020 OVC035
     FM262000 30008KT P6SM OVC035
     FM270900 VRB03KT 4SM BR BKN030
     FM271500 30003KT P6SM BKN040=

USA.gov is the U.S. government's official web portal to all federal, state and local government web resources and services.